Latest Weather Observations for Combienbar

IDV60801

Issued at 6:32 pm EST Saturday 25 April 2015 (issued every 30 minutes, with the page automatically refreshed every 10 minutes)

About weather observations | Map of weather stations | Latest weather observations for VIC | Other Formats
Station Details ID: 084143 Name: COMBIENBAR AWS Lat: -37.34 Lon: 149.02 Height: 640.0 m
Data from the previous 72 hours. | See also: Recent months at Combienbar
Date/Time
EST
Temp
°C
App
Temp
°C
Dew
Point
Rel
Hum
%
Delta-T
°C
Wind Press
QNH
hPa
Press
MSL
hPa
Rain
since 9 am
mm
Dir
 
Spd
km/h
Gust
km/h
Spd
kts
Gust
kts
25/06:30pm 9.8 9.7 9.3 97 0.3 CALM 0 0 0 0 1009.7 1008.4 1.8
25/06:00pm 10.0 9.9 9.4 96 0.3 CALM 0 0 0 0 1009.1 1007.9 1.8
25/05:30pm 9.8 9.6 8.9 94 0.5 CALM 0 0 0 0 1008.8 1007.6 1.8
25/05:00pm 10.2 10.1 9.3 94 0.5 CALM 0 0 0 0 1008.7 1007.5 1.8
25/04:30pm 10.7 10.6 9.5 92 0.6 CALM 0 0 0 0 1008.2 1006.9 1.8
25/04:00pm 11.1 11.2 10.0 93 0.6 CALM 0 0 0 0 1008.5 1007.3 1.8
25/03:30pm 11.5 11.7 10.4 93 0.6 CALM 0 2 0 1 1008.6 1007.4 1.8
25/03:00pm 11.3 11.4 10.2 93 0.6 CALM 0 2 0 1 1008.2 1006.9 1.8
25/02:30pm 11.2 11.1 9.6 90 0.8 CALM 0 2 0 1 1008.4 1007.2 1.8
25/02:00pm 11.2 11.3 10.3 94 0.5 CALM 0 2 0 1 1008.3 1007.0 1.8
25/01:30pm 11.6 11.8 10.7 94 0.5 CALM 0 0 0 0 1008.1 1006.8 1.6
25/01:00pm 12.5 13.0 11.6 94 0.5 CALM 0 0 0 0 1008.2 1006.9 1.6
25/12:30pm 12.6 13.1 11.5 93 0.6 CALM 0 0 0 0 1008.6 1007.4 1.6
25/12:00pm 13.1 13.3 10.6 85 1.4 CALM 0 0 0 0 1008.8 1007.6 0.0
25/11:30am 13.6 13.9 10.8 83 1.5 CALM 0 0 0 0 1009.0 1007.8 0.0
25/11:00am 13.3 13.3 9.7 79 1.9 CALM 0 0 0 0 1009.0 1007.8 0.0
25/10:30am 13.8 13.5 8.8 72 2.6 CALM 0 0 0 0 1008.8 1007.6 0.0
25/10:00am 13.6 13.2 8.4 71 2.7 CALM 0 0 0 0 1009.0 1007.8 0.0
25/09:30am 12.8 12.2 7.3 69 2.8 CALM 0 0 0 0 1009.0 1007.8 0.0
25/09:00am 14.1 13.4 8.5 69 2.9 NE 2 4 1 2 1008.9 1007.7 2.6
25/08:30am 13.7 13.5 9.2 74 2.4 CALM 0 2 0 1 1008.7 1007.5 2.6
25/08:00am 11.4 11.0 8.3 81 1.6 CALM 0 0 0 0 1008.5 1007.3 2.6
25/07:30am 11.4 10.5 6.1 70 2.6 CALM 0 0 0 0 1007.9 1006.6 2.6
25/07:00am 10.9 10.0 5.9 71 2.4 CALM 0 0 0 0 1007.5 1006.3 2.6
25/06:30am 10.7 9.8 6.1 73 2.2 CALM 0 4 0 2 1007.3 1006.1 2.6
25/06:00am 11.3 10.3 5.8 69 2.7 CALM 0 2 0 1 1007.2 1006.0 2.6
25/05:30am 10.8 9.9 6.0 72 2.3 CALM 0 0 0 0 1007.2 1006.0 2.6
25/05:00am 10.7 9.5 6.5 75 2.1 SW 2 6 1 3 1007.3 1006.1 2.6
25/04:30am 11.7 10.4 6.2 69 2.7 W 2 6 1 3 1007.4 1006.2 2.6
25/04:00am 11.2 10.4 6.5 73 2.3 CALM 0 0 0 0 1007.3 1006.1 2.6
25/03:30am 11.1 10.3 6.6 74 2.2 CALM 0 0 0 0 1007.1 1005.9 2.6
25/03:00am 11.5 10.8 6.8 73 2.3 CALM 0 4 0 2 1007.1 1005.9 2.6
25/02:30am 10.9 10.3 7.4 79 1.7 CALM 0 2 0 1 1007.0 1005.8 2.6
25/02:00am 11.6 10.9 7.1 74 2.2 CALM 0 4 0 2 1007.0 1005.8 2.6
25/01:30am 11.2 10.3 7.7 79 1.8 SSW 2 4 1 2 1006.9 1005.6 2.6
25/01:00am 12.7 11.0 7.4 70 2.7 W 6 13 3 7 1006.8 1005.5 2.6
25/12:30am 12.5 11.2 7.6 72 2.5 SW 4 11 2 6 1006.8 1005.5 2.6
25/12:00am 13.3 11.4 7.7 69 2.9 W 7 17 4 9 1006.7 1005.4 2.6
 
Date/Time
EST
Temp
°C
App
Temp
°C
Dew
Point
Rel
Hum
%
Delta-T
°C
Wind Press
QNH
hPa
Press
MSL
hPa
Rain
since 9 am
mm
Dir
 
Spd
km/h
Gust
km/h
Spd
kts
Gust
kts
24/11:30pm 13.8 12.0 7.3 65 3.3 WNW 6 11 3 6 1006.7 1005.4 2.6
24/11:00pm 13.6 12.2 7.4 66 3.2 WSW 4 11 2 6 1006.7 1005.4 2.6
24/10:30pm 14.2 12.4 7.0 62 3.6 W 6 17 3 9 1006.5 1005.2 2.6
24/10:00pm 13.2 12.8 8.1 71 2.6 CALM 0 4 0 2 1006.5 1005.2 2.6
24/09:30pm 13.8 12.5 7.6 66 3.2 WNW 4 17 2 9 1006.5 1005.2 2.6
24/09:00pm 14.0 12.4 7.8 66 3.2 SW 6 28 3 15 1006.3 1005.0 2.6
24/08:30pm 13.9 13.1 8.1 68 3.0 WNW 2 7 1 4 1006.2 1004.9 2.6
24/08:00pm 13.3 12.4 9.2 76 2.2 SW 4 11 2 6 1005.7 1004.5 2.6
24/07:30pm 14.1 13.6 9.3 73 2.5 NNW 2 9 1 5 1005.6 1004.3 2.6
24/07:00pm 13.1 12.9 10.6 85 1.4 NE 2 6 1 3 1005.5 1004.2 2.6
24/06:30pm 13.2 12.7 10.9 86 1.2 NE 4 7 2 4 1005.2 1003.9 2.6
24/06:00pm 14.0 13.7 10.2 78 2.1 N 2 7 1 4 1005.0 1003.7 2.6
24/05:30pm 13.8 14.2 11.1 84 1.5 CALM 0 4 0 2 1004.8 1003.5 2.6
24/05:00pm 14.8 13.7 10.8 77 2.2 NW 7 19 4 10 1004.6 1003.3 2.6
24/04:30pm 14.4 14.6 11.9 85 1.4 N 2 6 1 3 1004.4 1003.2 2.6
24/04:00pm 14.6 15.3 13.5 93 0.6 N 2 6 1 3 1004.3 1003.1 2.6
24/03:30pm 14.9 15.4 12.9 88 1.1 NW 2 4 1 2 1004.3 1003.1 2.6
24/03:00pm 15.1 16.2 13.6 91 0.9 CALM 0 0 0 0 1004.3 1003.1 2.6
24/02:30pm 14.5 15.3 12.7 89 1.0 CALM 0 2 0 1 1004.2 1002.9 2.6
24/02:00pm 14.1 14.0 13.3 95 0.5 NW 6 9 3 5 1004.3 1003.1 2.6
24/01:30pm 13.8 14.9 13.5 98 0.2 CALM 0 0 0 0 1004.8 1003.5 2.6
24/01:00pm 13.4 13.9 12.9 97 0.3 NE 2 4 1 2 1004.9 1003.6 2.2
24/12:30pm 13.3 14.1 12.7 96 0.3 CALM 0 0 0 0 1005.4 1004.1 1.4
24/12:00pm 13.9 14.9 13.3 96 0.3 CALM 0 0 0 0 1005.7 1004.5 1.0
24/11:30am 14.2 15.2 13.2 94 0.6 CALM 0 0 0 0 1005.9 1004.7 0.2
24/11:00am 14.8 15.7 12.8 88 1.1 CALM 0 0 0 0 1006.0 1004.8 0.0
24/10:30am 15.1 15.9 12.4 84 1.5 CALM 0 0 0 0 1005.9 1004.7 0.0
24/10:00am 15.4 16.2 12.7 84 1.5 CALM 0 0 0 0 1005.8 1004.6 0.0
24/09:30am 15.2 15.9 12.2 82 1.7 CALM 0 0 0 0 1005.9 1004.7 0.0
24/09:00am 15.4 16.1 12.3 82 1.8 CALM 0 6 0 3 1006.3 1005.0 14.8
24/08:30am 14.8 14.9 11.6 81 1.8 WNW 2 9 1 5 1006.4 1005.1 14.8
24/08:00am 14.6 15.0 11.4 81 1.8 CALM 0 0 0 0 1006.4 1005.1 14.8
24/07:30am 14.7 14.7 11.1 79 2.0 WNW 2 6 1 3 1006.5 1005.2 14.8
24/07:00am 13.6 13.8 10.6 82 1.6 CALM 0 0 0 0 1006.3 1005.0 14.8
24/06:30am 13.3 13.5 10.7 84 1.4 CALM 0 4 0 2 1006.3 1005.0 14.8
24/06:00am 13.1 13.2 10.3 83 1.5 CALM 0 0 0 0 1006.3 1005.0 14.8
24/05:30am 13.5 13.3 10.5 82 1.6 NW 2 6 1 3 1006.6 1005.3 14.8
24/05:00am 13.1 12.9 10.6 85 1.4 N 2 7 1 4 1006.8 1005.5 14.8
24/04:30am 12.9 13.6 12.3 96 0.3 CALM 0 4 0 2 1006.8 1005.5 14.8
24/04:00am 12.4 13.1 12.1 98 0.2 CALM 0 0 0 0 1007.2 1006.0 14.8
24/03:30am 11.9 12.4 11.6 98 0.2 CALM 0 0 0 0 1007.5 1006.3 14.8
24/03:00am 11.7 12.1 11.4 98 0.2 CALM 0 0 0 0 1008.0 1006.7 14.8
24/02:30am 11.9 12.4 11.6 98 0.2 CALM 0 0 0 0 1008.4 1007.2 14.8
24/02:00am 11.9 12.4 11.6 98 0.2 CALM 0 4 0 2 1008.7 1007.5 14.8
24/01:30am 12.0 12.6 11.8 99 0.1 CALM 0 4 0 2 1009.1 1007.9 14.6
24/01:00am 11.9 12.4 11.6 98 0.2 CALM 0 4 0 2 1009.8 1008.6 14.6
24/12:30am 12.3 12.2 12.1 99 0.1 WNW 4 7 2 4 1010.1 1008.9 14.6
24/12:00am 12.3 12.6 12.1 99 0.1 NW 2 7 1 4 1010.2 1009.0 14.6
 
Date/Time
EST
Temp
°C
App
Temp
°C
Dew
Point
Rel
Hum
%
Delta-T
°C
Wind Press
QNH
hPa
Press
MSL
hPa
Rain
since 9 am
mm
Dir
 
Spd
km/h
Gust
km/h
Spd
kts
Gust
kts
23/11:30pm 12.2 12.4 12.0 99 0.1 NNW 2 6 1 3 1010.6 1009.4 14.6
23/11:00pm 12.4 13.1 12.2 99 0.1 CALM 0 4 0 2 1010.8 1009.6 14.6
23/10:30pm 12.8 13.6 12.6 99 0.1 CALM 0 0 0 0 1011.5 1010.3 14.6
23/10:00pm 13.0 13.9 12.8 99 0.1 CALM 0 0 0 0 1012.1 1010.9 14.6
23/09:30pm 13.1 14.0 12.9 99 0.1 CALM 0 0 0 0 1012.4 1011.3 14.6
23/09:00pm 13.4 14.4 13.2 99 0.1 CALM 0 0 0 0 1012.6 1011.5 14.6
23/08:30pm 13.5 14.5 13.3 99 0.1 CALM 0 0 0 0 1012.9 1011.7 14.6
23/08:00pm 13.3 14.3 13.1 99 0.1 CALM 0 0 0 0 1013.0 1011.8 14.6
23/07:30pm 13.4 14.4 13.2 99 0.1 CALM 0 0 0 0 1013.0 1011.8 14.6
23/07:00pm 13.5 14.5 13.3 99 0.1 CALM 0 0 0 0 1013.1 1011.9 14.6
23/06:30pm 13.7 14.8 13.5 99 0.1 CALM 0 0 0 0 1013.3 1012.1 14.6
23/06:00pm 14.1 15.3 13.9 99 0.1 CALM 0 0 0 0 1013.1 1011.9 14.6
23/05:30pm 14.3 15.6 14.1 99 0.1 CALM 0 0 0 0 1012.9 1011.7 14.6
23/05:00pm 14.4 15.7 14.2 99 0.1 CALM 0 0 0 0 1012.7 1011.6 14.4
23/04:30pm 14.5 15.9 14.3 99 0.1 CALM 0 0 0 0 1012.7 1011.6 14.4
23/04:00pm 14.6 16.0 14.4 99 0.1 CALM 0 6 0 3 1013.2 1012.0 13.2
23/03:30pm 15.1 16.7 14.9 99 0.1 CALM 0 2 0 1 1013.2 1012.0 7.8
23/03:00pm 15.1 16.7 14.9 99 0.1 CALM 0 2 0 1 1013.2 1012.0 7.4
23/02:30pm 15.5 17.2 15.3 99 0.1 CALM 0 4 0 2 1013.4 1012.2 6.6
23/02:00pm 15.4 16.7 15.2 99 0.1 SSW 2 7 1 4 1013.6 1012.4 6.6
23/01:30pm 15.1 16.3 14.9 99 0.1 SSW 2 6 1 3 1013.9 1012.8 6.6
23/01:00pm 15.1 16.3 14.9 99 0.1 SW 2 4 1 2 1014.2 1013.1 6.4
23/12:30pm 15.1 16.7 14.9 99 0.1 CALM 0 6 0 3 1014.7 1013.5 6.4
23/12:00pm 15.0 16.2 14.8 99 0.1 SSW 2 4 1 2 1015.3 1014.2 6.2
23/11:30am 14.5 15.9 14.3 99 0.1 CALM 0 0 0 0 1015.9 1014.8 6.0
23/11:00am 14.3 15.6 14.1 99 0.1 CALM 0 2 0 1 1016.5 1015.3 5.4
23/10:30am 14.2 15.1 14.0 99 0.1 SSW 2 4 1 2 1016.6 1015.5 5.2
23/10:00am 14.1 15.0 13.9 99 0.1 SSW 2 4 1 2 1016.8 1015.7 4.8
23/09:30am 13.9 14.7 13.7 99 0.1 SSW 2 4 1 2 1016.9 1015.8 3.4
23/09:00am 13.9 14.7 13.7 99 0.1 SSW 2 4 1 2 1017.1 1016.0 63.0
23/08:30am 13.7 14.4 13.5 99 0.1 SSW 2 4 1 2 1017.3 1016.2 62.0
23/08:00am 13.5 14.2 13.3 99 0.1 SSW 2 4 1 2 1017.3 1016.2 59.6
23/07:30am 13.4 14.0 13.2 99 0.1 SSW 2 4 1 2 1017.2 1016.1 58.6
23/07:00am 13.5 14.2 13.3 99 0.1 SSW 2 6 1 3 1017.2 1016.1 57.8
23/06:30am 13.5 14.2 13.3 99 0.1 SSW 2 6 1 3 1017.0 1015.9 56.8
23/06:00am 13.6 14.3 13.4 99 0.1 SSW 2 4 1 2 1016.8 1015.7 56.0
23/05:30am 13.6 14.3 13.4 99 0.1 SSW 2 4 1 2 1016.8 1015.7 54.6
23/05:00am 13.6 14.3 13.4 99 0.1 SSW 2 6 1 3 1016.8 1015.7 53.0
23/04:30am 13.6 14.3 13.4 99 0.1 SSW 2 4 1 2 1016.6 1015.5 51.8
23/04:00am 13.6 14.3 13.4 99 0.1 SSW 2 4 1 2 1016.6 1015.5 51.2
23/03:30am 13.6 14.3 13.4 99 0.1 SSW 2 7 1 4 1016.6 1015.5 50.2
23/03:00am 13.6 13.9 13.4 99 0.1 SSW 4 9 2 5 1016.7 1015.6 49.6
23/02:30am 13.6 13.9 13.4 99 0.1 SSW 4 7 2 4 1016.9 1015.8 48.4
23/02:00am 13.6 14.3 13.4 99 0.1 SSW 2 6 1 3 1017.3 1016.2 46.0
23/01:30am 13.5 13.8 13.3 99 0.1 SSW 4 9 2 5 1017.4 1016.3 42.4
23/01:00am 13.5 13.8 13.3 99 0.1 SSW 4 7 2 4 1017.6 1016.5 41.4
23/12:30am 13.3 13.5 13.1 99 0.1 SSW 4 6 2 3 1017.9 1016.8 40.0
23/12:00am 13.1 13.3 12.9 99 0.1 SSW 4 7 2 4 1018.1 1017.0 39.4
 
Date/Time
EST
Temp
°C
App
Temp
°C
Dew
Point
Rel
Hum
%
Delta-T
°C
Wind Press
QNH
hPa
Press
MSL
hPa
Rain
since 9 am
mm
Dir
 
Spd
km/h
Gust
km/h
Spd
kts
Gust
kts
22/11:30pm 12.9 13.0 12.7 99 0.1 SSW 4 7 2 4 1018.4 1017.3 36.8
22/11:00pm 12.8 12.9 12.6 99 0.1 SSW 4 7 2 4 1018.7 1017.6 32.8
22/10:30pm 12.6 12.6 12.4 99 0.1 SSW 4 9 2 5 1019.0 1017.9 31.8
22/10:00pm 12.4 12.3 12.2 99 0.1 SW 4 6 2 3 1019.4 1018.4 29.6
22/09:30pm 12.1 12.3 11.9 99 0.1 SW 2 6 1 3 1019.8 1018.7 25.6
22/09:00pm 11.9 12.1 11.7 99 0.1 SW 2 4 1 2 1019.9 1018.8 22.8
22/08:30pm 11.7 11.8 11.5 99 0.1 SSW 2 7 1 4 1020.0 1018.9 20.0
22/08:00pm 11.5 11.5 11.3 99 0.1 SW 2 6 1 3 1020.1 1019.0 17.0
22/07:30pm 11.3 11.3 11.1 99 0.1 SSW 2 6 1 3 1020.1 1019.0 14.4
22/07:00pm 11.3 11.7 11.1 99 0.1 CALM 0 4 0 2 1020.3 1019.2 12.4

Other Formats:

Comma delimited format used in spreadsheet applications
http://www.bom.gov.au/fwo/IDV60801/IDV60801.94914.axf

JavaScript Object Notation format (JSON) in row-major order
http://www.bom.gov.au/fwo/IDV60801/IDV60801.94914.json